sensor_id;sensor_type;location;lat;lon;timestamp;temperature;humidity
23120;DHT22;11729;50.836;4.330;2022-07-18T00:02:00;22.70;70.40
23120;DHT22;11729;50.836;4.330;2022-07-18T00:04:26;22.60;71.00
23120;DHT22;11729;50.836;4.330;2022-07-18T00:06:53;22.60;70.90
23120;DHT22;11729;50.836;4.330;2022-07-18T00:09:19;22.60;71.90
23120;DHT22;11729;50.836;4.330;2022-07-18T00:11:46;22.60;71.40
23120;DHT22;11729;50.836;4.330;2022-07-18T00:14:12;22.50;72.80
23120;DHT22;11729;50.836;4.330;2022-07-18T00:16:37;22.50;72.50
23120;DHT22;11729;50.836;4.330;2022-07-18T00:19:03;22.50;73.20
23120;DHT22;11729;50.836;4.330;2022-07-18T00:21:29;22.50;72.50
23120;DHT22;11729;50.836;4.330;2022-07-18T00:23:55;22.40;73.10
23120;DHT22;11729;50.836;4.330;2022-07-18T00:26:21;22.50;72.70
23120;DHT22;11729;50.836;4.330;2022-07-18T00:28:46;22.50;72.00
23120;DHT22;11729;50.836;4.330;2022-07-18T00:31:12;22.50;72.50
23120;DHT22;11729;50.836;4.330;2022-07-18T00:33:38;22.50;73.10
23120;DHT22;11729;50.836;4.330;2022-07-18T00:36:04;22.40;73.40
23120;DHT22;11729;50.836;4.330;2022-07-18T00:38:30;22.40;73.80
23120;DHT22;11729;50.836;4.330;2022-07-18T00:40:56;22.40;73.70
23120;DHT22;11729;50.836;4.330;2022-07-18T00:43:21;22.30;74.80
23120;DHT22;11729;50.836;4.330;2022-07-18T00:45:49;22.30;74.20
23120;DHT22;11729;50.836;4.330;2022-07-18T00:48:15;22.30;76.10
23120;DHT22;11729;50.836;4.330;2022-07-18T00:50:42;22.20;76.90
23120;DHT22;11729;50.836;4.330;2022-07-18T00:53:08;22.20;77.90
23120;DHT22;11729;50.836;4.330;2022-07-18T00:55:38;22.10;78.30
23120;DHT22;11729;50.836;4.330;2022-07-18T00:58:04;22.10;79.40
23120;DHT22;11729;50.836;4.330;2022-07-18T01:00:30;22.00;79.00
23120;DHT22;11729;50.836;4.330;2022-07-18T01:03:14;22.00;78.80
23120;DHT22;11729;50.836;4.330;2022-07-18T01:05:39;21.90;77.60
23120;DHT22;11729;50.836;4.330;2022-07-18T01:08:05;21.90;78.50
23120;DHT22;11729;50.836;4.330;2022-07-18T01:10:31;21.90;77.10
23120;DHT22;11729;50.836;4.330;2022-07-18T01:12:57;21.90;77.50
23120;DHT22;11729;50.836;4.330;2022-07-18T01:15:22;22.00;77.20
23120;DHT22;11729;50.836;4.330;2022-07-18T01:17:48;22.00;76.10
23120;DHT22;11729;50.836;4.330;2022-07-18T01:20:14;22.10;75.90
23120;DHT22;11729;50.836;4.330;2022-07-18T01:22:40;22.10;76.00
23120;DHT22;11729;50.836;4.330;2022-07-18T01:25:08;22.10;76.40
23120;DHT22;11729;50.836;4.330;2022-07-18T01:27:34;22.10;77.50
23120;DHT22;11729;50.836;4.330;2022-07-18T01:30:00;22.00;76.90
23120;DHT22;11729;50.836;4.330;2022-07-18T01:32:26;22.00;77.40
23120;DHT22;11729;50.836;4.330;2022-07-18T01:34:51;22.00;77.50
23120;DHT22;11729;50.836;4.330;2022-07-18T01:37:17;22.00;76.70
23120;DHT22;11729;50.836;4.330;2022-07-18T01:39:44;22.00;76.60
23120;DHT22;11729;50.836;4.330;2022-07-18T01:42:11;22.00;77.90
23120;DHT22;11729;50.836;4.330;2022-07-18T01:44:38;22.00;77.40
23120;DHT22;11729;50.836;4.330;2022-07-18T01:47:05;21.90;77.10
23120;DHT22;11729;50.836;4.330;2022-07-18T01:49:31;21.90;78.40
23120;DHT22;11729;50.836;4.330;2022-07-18T01:51:57;21.80;78.40
23120;DHT22;11729;50.836;4.330;2022-07-18T01:54:28;21.80;78.80
23120;DHT22;11729;50.836;4.330;2022-07-18T01:56:55;21.80;79.80
23120;DHT22;11729;50.836;4.330;2022-07-18T01:59:22;21.70;78.40
23120;DHT22;11729;50.836;4.330;2022-07-18T02:01:48;21.70;78.40
23120;DHT22;11729;50.836;4.330;2022-07-18T02:04:14;21.70;79.40
23120;DHT22;11729;50.836;4.330;2022-07-18T02:06:39;21.60;79.60
23120;DHT22;11729;50.836;4.330;2022-07-18T02:09:06;21.60;80.90
23120;DHT22;11729;50.836;4.330;2022-07-18T02:11:33;21.60;82.10
23120;DHT22;11729;50.836;4.330;2022-07-18T02:13:59;21.60;81.40
23120;DHT22;11729;50.836;4.330;2022-07-18T02:16:24;21.50;81.10
23120;DHT22;11729;50.836;4.330;2022-07-18T02:18:50;21.40;81.30
23120;DHT22;11729;50.836;4.330;2022-07-18T02:21:16;21.40;81.70
23120;DHT22;11729;50.836;4.330;2022-07-18T02:23:43;21.40;81.50
23120;DHT22;11729;50.836;4.330;2022-07-18T02:26:09;21.30;81.60
23120;DHT22;11729;50.836;4.330;2022-07-18T02:28:36;21.30;82.20
23120;DHT22;11729;50.836;4.330;2022-07-18T02:31:02;21.30;82.10
23120;DHT22;11729;50.836;4.330;2022-07-18T02:33:28;21.40;83.10
23120;DHT22;11729;50.836;4.330;2022-07-18T02:35:53;21.30;83.60
23120;DHT22;11729;50.836;4.330;2022-07-18T02:38:19;21.30;84.30
23120;DHT22;11729;50.836;4.330;2022-07-18T02:40:45;21.30;84.90
23120;DHT22;11729;50.836;4.330;2022-07-18T02:43:10;21.20;85.10
23120;DHT22;11729;50.836;4.330;2022-07-18T02:45:36;21.20;84.10
23120;DHT22;11729;50.836;4.330;2022-07-18T02:48:02;21.20;85.50
23120;DHT22;11729;50.836;4.330;2022-07-18T02:50:28;21.20;85.40
23120;DHT22;11729;50.836;4.330;2022-07-18T02:52:53;21.20;85.80
23120;DHT22;11729;50.836;4.330;2022-07-18T02:55:19;21.10;87.90
23120;DHT22;11729;50.836;4.330;2022-07-18T02:57:46;21.10;87.30
23120;DHT22;11729;50.836;4.330;2022-07-18T03:00:13;21.00;87.60
23120;DHT22;11729;50.836;4.330;2022-07-18T03:02:41;21.00;88.40
23120;DHT22;11729;50.836;4.330;2022-07-18T03:05:08;21.00;88.10
23120;DHT22;11729;50.836;4.330;2022-07-18T03:07:33;20.90;89.20
23120;DHT22;11729;50.836;4.330;2022-07-18T03:09:59;20.90;89.00
23120;DHT22;11729;50.836;4.330;2022-07-18T03:12:25;20.90;89.30
23120;DHT22;11729;50.836;4.330;2022-07-18T03:14:50;20.80;88.70
23120;DHT22;11729;50.836;4.330;2022-07-18T03:17:16;20.60;88.90
23120;DHT22;11729;50.836;4.330;2022-07-18T03:19:42;20.60;89.70
23120;DHT22;11729;50.836;4.330;2022-07-18T03:22:07;20.60;89.70
23120;DHT22;11729;50.836;4.330;2022-07-18T03:24:33;20.70;90.00
23120;DHT22;11729;50.836;4.330;2022-07-18T03:26:59;20.60;89.80
23120;DHT22;11729;50.836;4.330;2022-07-18T03:29:25;20.60;90.10
23120;DHT22;11729;50.836;4.330;2022-07-18T03:31:51;20.60;90.30
23120;DHT22;11729;50.836;4.330;2022-07-18T03:34:17;20.70;90.40
23120;DHT22;11729;50.836;4.330;2022-07-18T03:36:43;20.70;90.70
23120;DHT22;11729;50.836;4.330;2022-07-18T03:39:09;20.60;91.30
23120;DHT22;11729;50.836;4.330;2022-07-18T03:41:36;20.70;91.40
23120;DHT22;11729;50.836;4.330;2022-07-18T03:44:02;20.60;91.40
23120;DHT22;11729;50.836;4.330;2022-07-18T03:46:28;20.60;91.90
23120;DHT22;11729;50.836;4.330;2022-07-18T03:48:54;20.60;92.10
23120;DHT22;11729;50.836;4.330;2022-07-18T03:51:20;20.60;92.60
23120;DHT22;11729;50.836;4.330;2022-07-18T03:53:45;20.60;93.10
23120;DHT22;11729;50.836;4.330;2022-07-18T03:56:11;20.60;93.80
23120;DHT22;11729;50.836;4.330;2022-07-18T03:58:37;20.50;94.50
23120;DHT22;11729;50.836;4.330;2022-07-18T04:01:03;20.50;95.70
23120;DHT22;11729;50.836;4.330;2022-07-18T04:03:28;20.50;96.80
23120;DHT22;11729;50.836;4.330;2022-07-18T04:05:54;20.40;97.90
23120;DHT22;11729;50.836;4.330;2022-07-18T04:08:20;20.30;98.70
23120;DHT22;11729;50.836;4.330;2022-07-18T04:10:45;20.40;99.80
23120;DHT22;11729;50.836;4.330;2022-07-18T04:13:11;20.30;99.90
23120;DHT22;11729;50.836;4.330;2022-07-18T04:15:37;20.30;99.90
23120;DHT22;11729;50.836;4.330;2022-07-18T04:18:07;20.30;99.90
23120;DHT22;11729;50.836;4.330;2022-07-18T04:20:33;20.30;99.90
23120;DHT22;11729;50.836;4.330;2022-07-18T04:23:01;20.30;99.90
23120;DHT22;11729;50.836;4.330;2022-07-18T04:25:28;20.40;99.90
23120;DHT22;11729;50.836;4.330;2022-07-18T04:27:54;20.40;99.90
23120;DHT22;11729;50.836;4.330;2022-07-18T04:30:24;20.40;99.90
23120;DHT22;11729;50.836;4.330;2022-07-18T04:32:50;20.40;99.90
23120;DHT22;11729;50.836;4.330;2022-07-18T04:35:16;20.50;99.90
23120;DHT22;11729;50.836;4.330;2022-07-18T04:37:42;20.40;99.90
23120;DHT22;11729;50.836;4.330;2022-07-18T04:40:09;20.40;99.90
23120;DHT22;11729;50.836;4.330;2022-07-18T04:42:35;20.40;99.90
23120;DHT22;11729;50.836;4.330;2022-07-18T04:45:01;20.40;99.90
23120;DHT22;11729;50.836;4.330;2022-07-18T04:47:27;20.50;99.90
23120;DHT22;11729;50.836;4.330;2022-07-18T04:49:54;20.60;99.90
23120;DHT22;11729;50.836;4.330;2022-07-18T04:52:20;20.60;99.90
23120;DHT22;11729;50.836;4.330;2022-07-18T04:54:46;20.70;99.90
23120;DHT22;11729;50.836;4.330;2022-07-18T04:57:12;20.70;99.90
23120;DHT22;11729;50.836;4.330;2022-07-18T04:59:41;20.70;99.90
23120;DHT22;11729;50.836;4.330;2022-07-18T05:02:08;20.80;99.90
23120;DHT22;11729;50.836;4.330;2022-07-18T05:04:35;20.80;99.90
23120;DHT22;11729;50.836;4.330;2022-07-18T05:07:01;20.90;99.90
23120;DHT22;11729;50.836;4.330;2022-07-18T05:09:27;21.00;99.90
23120;DHT22;11729;50.836;4.330;2022-07-18T05:11:54;21.10;99.90
23120;DHT22;11729;50.836;4.330;2022-07-18T05:14:19;21.10;99.90
23120;DHT22;11729;50.836;4.330;2022-07-18T05:16:46;21.20;99.90
23120;DHT22;11729;50.836;4.330;2022-07-18T05:19:12;21.20;99.90
23120;DHT22;11729;50.836;4.330;2022-07-18T05:21:40;21.30;99.90
23120;DHT22;11729;50.836;4.330;2022-07-18T05:24:06;21.40;99.90
23120;DHT22;11729;50.836;4.330;2022-07-18T05:26:32;21.60;99.90
23120;DHT22;11729;50.836;4.330;2022-07-18T05:28:58;21.70;99.90
23120;DHT22;11729;50.836;4.330;2022-07-18T05:31:24;21.70;99.90
23120;DHT22;11729;50.836;4.330;2022-07-18T05:33:49;21.90;99.90
23120;DHT22;11729;50.836;4.330;2022-07-18T05:36:15;22.10;99.40
23120;DHT22;11729;50.836;4.330;2022-07-18T05:38:40;22.30;99.00
23120;DHT22;11729;50.836;4.330;2022-07-18T05:41:06;22.50;98.00
23120;DHT22;11729;50.836;4.330;2022-07-18T05:43:32;22.70;97.40
23120;DHT22;11729;50.836;4.330;2022-07-18T05:45:57;22.80;97.70
23120;DHT22;11729;50.836;4.330;2022-07-18T05:48:23;22.80;96.50
23120;DHT22;11729;50.836;4.330;2022-07-18T05:50:48;22.90;95.90
23120;DHT22;11729;50.836;4.330;2022-07-18T05:53:14;23.10;94.70
23120;DHT22;11729;50.836;4.330;2022-07-18T05:55:40;23.30;93.80
23120;DHT22;11729;50.836;4.330;2022-07-18T05:58:05;24.10;92.10
23120;DHT22;11729;50.836;4.330;2022-07-18T06:00:31;25.70;86.60
23120;DHT22;11729;50.836;4.330;2022-07-18T06:02:56;27.20;78.20
23120;DHT22;11729;50.836;4.330;2022-07-18T06:05:22;28.60;71.80
23120;DHT22;11729;50.836;4.330;2022-07-18T06:07:48;30.00;66.60
23120;DHT22;11729;50.836;4.330;2022-07-18T06:10:14;31.20;62.10
23120;DHT22;11729;50.836;4.330;2022-07-18T06:12:40;32.20;58.50
23120;DHT22;11729;50.836;4.330;2022-07-18T06:15:06;33.20;55.20
23120;DHT22;11729;50.836;4.330;2022-07-18T06:17:33;33.70;53.60
23120;DHT22;11729;50.836;4.330;2022-07-18T06:19:58;34.20;52.50
23120;DHT22;11729;50.836;4.330;2022-07-18T06:22:25;34.90;51.10
23120;DHT22;11729;50.836;4.330;2022-07-18T06:24:51;35.60;49.10
23120;DHT22;11729;50.836;4.330;2022-07-18T06:27:16;36.10;47.60
23120;DHT22;11729;50.836;4.330;2022-07-18T06:29:42;35.70;47.40
23120;DHT22;11729;50.836;4.330;2022-07-18T06:32:08;35.90;47.00
23120;DHT22;11729;50.836;4.330;2022-07-18T06:34:33;36.50;46.50
23120;DHT22;11729;50.836;4.330;2022-07-18T06:36:59;37.40;45.40
23120;DHT22;11729;50.836;4.330;2022-07-18T06:39:25;37.50;44.70
23120;DHT22;11729;50.836;4.330;2022-07-18T06:41:50;37.00;45.00
23120;DHT22;11729;50.836;4.330;2022-07-18T06:44:16;37.70;44.30
23120;DHT22;11729;50.836;4.330;2022-07-18T06:46:42;38.10;44.00
23120;DHT22;11729;50.836;4.330;2022-07-18T06:49:08;36.70;44.70
23120;DHT22;11729;50.836;4.330;2022-07-18T06:51:34;36.10;45.40
23120;DHT22;11729;50.836;4.330;2022-07-18T06:53:59;36.40;45.50
23120;DHT22;11729;50.836;4.330;2022-07-18T06:56:25;37.10;44.50
23120;DHT22;11729;50.836;4.330;2022-07-18T06:58:51;38.20;43.80
23120;DHT22;11729;50.836;4.330;2022-07-18T07:01:19;38.40;41.90
23120;DHT22;11729;50.836;4.330;2022-07-18T07:03:45;39.20;41.50
23120;DHT22;11729;50.836;4.330;2022-07-18T07:06:11;39.20;40.80
23120;DHT22;11729;50.836;4.330;2022-07-18T07:08:36;39.60;39.80
23120;DHT22;11729;50.836;4.330;2022-07-18T07:11:02;39.70;40.00
23120;DHT22;11729;50.836;4.330;2022-07-18T07:13:28;39.90;39.50
23120;DHT22;11729;50.836;4.330;2022-07-18T07:15:54;39.70;40.00
23120;DHT22;11729;50.836;4.330;2022-07-18T07:18:20;40.30;39.00
23120;DHT22;11729;50.836;4.330;2022-07-18T07:20:46;40.40;38.80
23120;DHT22;11729;50.836;4.330;2022-07-18T07:23:12;40.90;38.50
23120;DHT22;11729;50.836;4.330;2022-07-18T07:25:39;41.10;38.00
23120;DHT22;11729;50.836;4.330;2022-07-18T07:28:06;40.90;37.10
23120;DHT22;11729;50.836;4.330;2022-07-18T07:30:33;41.30;37.30
23120;DHT22;11729;50.836;4.330;2022-07-18T07:32:59;41.10;37.20
23120;DHT22;11729;50.836;4.330;2022-07-18T07:35:25;41.00;37.20
23120;DHT22;11729;50.836;4.330;2022-07-18T07:38:00;41.00;37.80
23120;DHT22;11729;50.836;4.330;2022-07-18T07:40:27;40.90;37.10
23120;DHT22;11729;50.836;4.330;2022-07-18T07:43:15;40.90;37.30
23120;DHT22;11729;50.836;4.330;2022-07-18T07:45:41;41.30;37.70
23120;DHT22;11729;50.836;4.330;2022-07-18T07:48:07;41.90;36.80
23120;DHT22;11729;50.836;4.330;2022-07-18T07:50:35;41.90;36.00
23120;DHT22;11729;50.836;4.330;2022-07-18T07:53:01;42.00;35.10
23120;DHT22;11729;50.836;4.330;2022-07-18T07:55:28;41.20;35.80
23120;DHT22;11729;50.836;4.330;2022-07-18T07:57:54;40.70;37.50
23120;DHT22;11729;50.836;4.330;2022-07-18T08:00:20;41.00;37.00
23120;DHT22;11729;50.836;4.330;2022-07-18T08:02:56;41.10;36.30
23120;DHT22;11729;50.836;4.330;2022-07-18T08:05:23;41.30;36.60
23120;DHT22;11729;50.836;4.330;2022-07-18T08:07:49;41.80;36.60
23120;DHT22;11729;50.836;4.330;2022-07-18T08:10:15;41.70;35.50
23120;DHT22;11729;50.836;4.330;2022-07-18T08:12:41;41.80;36.00
23120;DHT22;11729;50.836;4.330;2022-07-18T08:15:07;42.10;36.30
23120;DHT22;11729;50.836;4.330;2022-07-18T08:17:34;42.40;35.80
23120;DHT22;11729;50.836;4.330;2022-07-18T08:19:59;41.70;36.10
23120;DHT22;11729;50.836;4.330;2022-07-18T08:22:25;42.40;35.90
23120;DHT22;11729;50.836;4.330;2022-07-18T08:24:51;42.30;35.00
23120;DHT22;11729;50.836;4.330;2022-07-18T08:27:16;42.00;34.60
23120;DHT22;11729;50.836;4.330;2022-07-18T08:29:42;41.30;36.90
23120;DHT22;11729;50.836;4.330;2022-07-18T08:32:07;42.40;36.00
23120;DHT22;11729;50.836;4.330;2022-07-18T08:34:33;42.70;36.60
23120;DHT22;11729;50.836;4.330;2022-07-18T08:36:59;42.60;35.00
23120;DHT22;11729;50.836;4.330;2022-07-18T08:39:25;41.80;34.70
23120;DHT22;11729;50.836;4.330;2022-07-18T08:41:51;42.50;35.80
23120;DHT22;11729;50.836;4.330;2022-07-18T08:44:17;43.40;33.80
23120;DHT22;11729;50.836;4.330;2022-07-18T08:46:50;43.50;35.20
23120;DHT22;11729;50.836;4.330;2022-07-18T08:49:17;44.10;34.30
23120;DHT22;11729;50.836;4.330;2022-07-18T08:51:43;44.20;33.60
23120;DHT22;11729;50.836;4.330;2022-07-18T08:54:09;44.50;32.40
23120;DHT22;11729;50.836;4.330;2022-07-18T08:56:35;44.60;31.70
23120;DHT22;11729;50.836;4.330;2022-07-18T08:59:02;44.30;33.10
23120;DHT22;11729;50.836;4.330;2022-07-18T09:01:32;44.40;33.20
23120;DHT22;11729;50.836;4.330;2022-07-18T09:03:58;44.30;34.00
23120;DHT22;11729;50.836;4.330;2022-07-18T09:06:51;44.40;32.00
23120;DHT22;11729;50.836;4.330;2022-07-18T09:09:18;44.80;30.80
23120;DHT22;11729;50.836;4.330;2022-07-18T09:11:55;44.80;31.30
23120;DHT22;11729;50.836;4.330;2022-07-18T09:14:34;44.90;31.50
23120;DHT22;11729;50.836;4.330;2022-07-18T09:17:14;44.80;31.30
23120;DHT22;11729;50.836;4.330;2022-07-18T09:19:43;45.30;31.40
23120;DHT22;11729;50.836;4.330;2022-07-18T09:32:39;46.00;30.80
23120;DHT22;11729;50.836;4.330;2022-07-18T09:35:10;46.20;29.70
23120;DHT22;11729;50.836;4.330;2022-07-18T09:37:36;46.30;30.40
23120;DHT22;11729;50.836;4.330;2022-07-18T09:40:49;46.20;29.70
23120;DHT22;11729;50.836;4.330;2022-07-18T09:43:19;45.30;29.80
23120;DHT22;11729;50.836;4.330;2022-07-18T09:45:51;45.50;28.80
23120;DHT22;11729;50.836;4.330;2022-07-18T09:48:20;45.20;30.00
23120;DHT22;11729;50.836;4.330;2022-07-18T09:53:16;45.10;29.30
23120;DHT22;11729;50.836;4.330;2022-07-18T09:55:51;45.40;30.00
23120;DHT22;11729;50.836;4.330;2022-07-18T09:58:24;45.20;28.90
23120;DHT22;11729;50.836;4.330;2022-07-18T10:00:51;44.90;28.50
23120;DHT22;11729;50.836;4.330;2022-07-18T10:03:19;44.10;29.40
23120;DHT22;11729;50.836;4.330;2022-07-18T10:05:47;44.20;29.90
23120;DHT22;11729;50.836;4.330;2022-07-18T10:08:16;43.90;29.60
23120;DHT22;11729;50.836;4.330;2022-07-18T10:10:44;44.50;30.40
23120;DHT22;11729;50.836;4.330;2022-07-18T10:13:10;44.30;29.60
23120;DHT22;11729;50.836;4.330;2022-07-18T10:15:37;44.30;29.60
23120;DHT22;11729;50.836;4.330;2022-07-18T10:18:06;45.00;28.60
23120;DHT22;11729;50.836;4.330;2022-07-18T10:20:54;44.40;28.20
23120;DHT22;11729;50.836;4.330;2022-07-18T10:23:50;44.40;28.20
23120;DHT22;11729;50.836;4.330;2022-07-18T10:26:18;44.60;28.90
23120;DHT22;11729;50.836;4.330;2022-07-18T10:31:26;44.90;27.90
23120;DHT22;11729;50.836;4.330;2022-07-18T10:33:54;45.70;26.80
23120;DHT22;11729;50.836;4.330;2022-07-18T10:36:23;45.70;27.00
23120;DHT22;11729;50.836;4.330;2022-07-18T10:57:39;46.10;26.90
23120;DHT22;11729;50.836;4.330;2022-07-18T11:02:47;44.30;27.00
23120;DHT22;11729;50.836;4.330;2022-07-18T11:18:22;43.90;27.60
23120;DHT22;11729;50.836;4.330;2022-07-18T11:20:49;43.00;28.70
23120;DHT22;11729;50.836;4.330;2022-07-18T11:23:20;43.20;29.30
23120;DHT22;11729;50.836;4.330;2022-07-18T11:25:48;43.60;29.10
23120;DHT22;11729;50.836;4.330;2022-07-18T11:28:14;44.30;27.40
23120;DHT22;11729;50.836;4.330;2022-07-18T11:30:40;44.10;27.60
23120;DHT22;11729;50.836;4.330;2022-07-18T11:33:20;43.90;27.80
23120;DHT22;11729;50.836;4.330;2022-07-18T11:35:48;44.20;28.00
23120;DHT22;11729;50.836;4.330;2022-07-18T11:38:13;44.10;26.80
23120;DHT22;11729;50.836;4.330;2022-07-18T11:40:49;43.80;27.20
23120;DHT22;11729;50.836;4.330;2022-07-18T11:43:26;43.60;28.20
23120;DHT22;11729;50.836;4.330;2022-07-18T11:46:01;44.10;28.80
23120;DHT22;11729;50.836;4.330;2022-07-18T11:48:27;44.70;28.70
23120;DHT22;11729;50.836;4.330;2022-07-18T11:50:53;45.20;27.70
23120;DHT22;11729;50.836;4.330;2022-07-18T11:53:20;44.90;27.20
23120;DHT22;11729;50.836;4.330;2022-07-18T11:55:46;45.10;27.10
23120;DHT22;11729;50.836;4.330;2022-07-18T11:58:15;44.90;26.00
23120;DHT22;11729;50.836;4.330;2022-07-18T12:00:43;45.40;27.90
23120;DHT22;11729;50.836;4.330;2022-07-18T12:05:43;45.90;26.00
23120;DHT22;11729;50.836;4.330;2022-07-18T12:13:53;46.30;24.90
23120;DHT22;11729;50.836;4.330;2022-07-18T12:16:41;45.70;26.70
23120;DHT22;11729;50.836;4.330;2022-07-18T12:19:16;45.50;26.40
23120;DHT22;11729;50.836;4.330;2022-07-18T12:24:29;45.30;27.40
23120;DHT22;11729;50.836;4.330;2022-07-18T12:32:56;45.90;25.90
23120;DHT22;11729;50.836;4.330;2022-07-18T12:35:28;45.70;25.70
23120;DHT22;11729;50.836;4.330;2022-07-18T12:43:05;45.30;26.50
23120;DHT22;11729;50.836;4.330;2022-07-18T12:45:31;45.30;26.00
23120;DHT22;11729;50.836;4.330;2022-07-18T12:47:57;45.60;26.10
23120;DHT22;11729;50.836;4.330;2022-07-18T12:50:23;46.30;25.90
23120;DHT22;11729;50.836;4.330;2022-07-18T12:52:48;46.60;25.00
23120;DHT22;11729;50.836;4.330;2022-07-18T12:55:14;46.90;25.40
23120;DHT22;11729;50.836;4.330;2022-07-18T12:57:41;46.60;24.80
23120;DHT22;11729;50.836;4.330;2022-07-18T13:00:07;46.70;25.70
23120;DHT22;11729;50.836;4.330;2022-07-18T13:02:33;47.10;24.40
23120;DHT22;11729;50.836;4.330;2022-07-18T13:04:58;47.50;24.20
23120;DHT22;11729;50.836;4.330;2022-07-18T13:07:24;47.50;23.70
23120;DHT22;11729;50.836;4.330;2022-07-18T13:09:49;47.30;23.80
23120;DHT22;11729;50.836;4.330;2022-07-18T13:12:15;46.80;24.90
23120;DHT22;11729;50.836;4.330;2022-07-18T13:14:41;46.30;24.90
23120;DHT22;11729;50.836;4.330;2022-07-18T13:17:06;45.30;25.00
23120;DHT22;11729;50.836;4.330;2022-07-18T13:19:32;46.10;26.20
23120;DHT22;11729;50.836;4.330;2022-07-18T13:21:58;46.50;25.50
23120;DHT22;11729;50.836;4.330;2022-07-18T13:24:25;46.60;25.00
23120;DHT22;11729;50.836;4.330;2022-07-18T13:26:50;46.80;25.00
23120;DHT22;11729;50.836;4.330;2022-07-18T13:29:16;47.00;25.00
23120;DHT22;11729;50.836;4.330;2022-07-18T13:31:43;47.60;25.30
23120;DHT22;11729;50.836;4.330;2022-07-18T13:34:08;47.40;24.70
23120;DHT22;11729;50.836;4.330;2022-07-18T13:36:34;47.10;23.90
23120;DHT22;11729;50.836;4.330;2022-07-18T13:39:00;45.40;23.90
23120;DHT22;11729;50.836;4.330;2022-07-18T13:41:29;45.10;24.70
23120;DHT22;11729;50.836;4.330;2022-07-18T13:43:55;44.90;25.30
23120;DHT22;11729;50.836;4.330;2022-07-18T13:46:21;44.90;26.20
23120;DHT22;11729;50.836;4.330;2022-07-18T13:48:47;44.20;26.20
23120;DHT22;11729;50.836;4.330;2022-07-18T13:51:14;43.10;26.20
23120;DHT22;11729;50.836;4.330;2022-07-18T13:53:40;42.10;27.10
23120;DHT22;11729;50.836;4.330;2022-07-18T13:56:06;41.30;28.40
23120;DHT22;11729;50.836;4.330;2022-07-18T13:58:32;40.70;28.00
23120;DHT22;11729;50.836;4.330;2022-07-18T14:00:57;40.20;29.20
23120;DHT22;11729;50.836;4.330;2022-07-18T14:03:23;39.80;28.80
23120;DHT22;11729;50.836;4.330;2022-07-18T14:05:49;39.40;29.00
23120;DHT22;11729;50.836;4.330;2022-07-18T14:08:14;39.30;29.20
23120;DHT22;11729;50.836;4.330;2022-07-18T14:10:40;39.10;29.50
23120;DHT22;11729;50.836;4.330;2022-07-18T14:13:06;38.40;29.60
23120;DHT22;11729;50.836;4.330;2022-07-18T14:15:32;37.90;30.00
23120;DHT22;11729;50.836;4.330;2022-07-18T14:17:58;38.00;30.90
23120;DHT22;11729;50.836;4.330;2022-07-18T14:20:23;38.00;31.50
23120;DHT22;11729;50.836;4.330;2022-07-18T14:22:49;37.60;29.90
23120;DHT22;11729;50.836;4.330;2022-07-18T14:25:16;37.30;30.00
23120;DHT22;11729;50.836;4.330;2022-07-18T14:27:43;37.20;30.10
23120;DHT22;11729;50.836;4.330;2022-07-18T14:30:12;37.30;31.10
23120;DHT22;11729;50.836;4.330;2022-07-18T14:32:38;37.40;30.30
23120;DHT22;11729;50.836;4.330;2022-07-18T14:35:05;37.20;29.90
23120;DHT22;11729;50.836;4.330;2022-07-18T14:37:31;37.30;30.70
23120;DHT22;11729;50.836;4.330;2022-07-18T14:39:57;37.30;30.40
23120;DHT22;11729;50.836;4.330;2022-07-18T14:42:24;37.20;30.40
23120;DHT22;11729;50.836;4.330;2022-07-18T14:44:50;37.20;30.70
23120;DHT22;11729;50.836;4.330;2022-07-18T14:47:16;37.30;31.20
23120;DHT22;11729;50.836;4.330;2022-07-18T14:49:42;37.30;30.70
23120;DHT22;11729;50.836;4.330;2022-07-18T14:52:07;37.20;30.70
23120;DHT22;11729;50.836;4.330;2022-07-18T14:54:33;37.10;30.50
23120;DHT22;11729;50.836;4.330;2022-07-18T14:56:59;37.00;32.40
23120;DHT22;11729;50.836;4.330;2022-07-18T14:59:24;37.00;32.40
23120;DHT22;11729;50.836;4.330;2022-07-18T15:01:50;37.20;31.40
23120;DHT22;11729;50.836;4.330;2022-07-18T15:04:16;37.20;30.80
23120;DHT22;11729;50.836;4.330;2022-07-18T15:06:42;37.10;30.70
23120;DHT22;11729;50.836;4.330;2022-07-18T15:09:08;37.00;31.00
23120;DHT22;11729;50.836;4.330;2022-07-18T15:11:38;37.10;31.20
23120;DHT22;11729;50.836;4.330;2022-07-18T15:14:04;37.00;31.70
23120;DHT22;11729;50.836;4.330;2022-07-18T15:16:30;36.30;31.80
23120;DHT22;11729;50.836;4.330;2022-07-18T15:18:56;36.10;31.60
23120;DHT22;11729;50.836;4.330;2022-07-18T15:21:21;36.10;33.00
23120;DHT22;11729;50.836;4.330;2022-07-18T15:23:47;36.20;33.50
23120;DHT22;11729;50.836;4.330;2022-07-18T15:26:13;36.50;32.70
23120;DHT22;11729;50.836;4.330;2022-07-18T15:28:38;36.60;32.70
23120;DHT22;11729;50.836;4.330;2022-07-18T15:31:04;36.70;32.10
23120;DHT22;11729;50.836;4.330;2022-07-18T15:33:29;36.70;32.40
23120;DHT22;11729;50.836;4.330;2022-07-18T15:35:55;36.70;32.60
23120;DHT22;11729;50.836;4.330;2022-07-18T15:38:21;36.70;33.40
23120;DHT22;11729;50.836;4.330;2022-07-18T15:40:47;36.90;31.60
23120;DHT22;11729;50.836;4.330;2022-07-18T15:43:13;36.60;31.60
23120;DHT22;11729;50.836;4.330;2022-07-18T15:45:39;36.50;32.90
23120;DHT22;11729;50.836;4.330;2022-07-18T15:48:05;36.40;33.00
23120;DHT22;11729;50.836;4.330;2022-07-18T15:50:30;36.30;33.80
23120;DHT22;11729;50.836;4.330;2022-07-18T15:52:56;36.30;33.30
23120;DHT22;11729;50.836;4.330;2022-07-18T15:55:22;36.30;33.80
23120;DHT22;11729;50.836;4.330;2022-07-18T15:57:48;36.50;32.20
23120;DHT22;11729;50.836;4.330;2022-07-18T16:00:14;36.60;32.90
23120;DHT22;11729;50.836;4.330;2022-07-18T16:02:39;36.60;32.20
23120;DHT22;11729;50.836;4.330;2022-07-18T16:05:06;36.50;32.90
23120;DHT22;11729;50.836;4.330;2022-07-18T16:07:32;36.40;33.30
23120;DHT22;11729;50.836;4.330;2022-07-18T16:09:57;36.40;32.70
23120;DHT22;11729;50.836;4.330;2022-07-18T16:12:23;36.40;32.50
23120;DHT22;11729;50.836;4.330;2022-07-18T16:14:49;36.40;32.90
23120;DHT22;11729;50.836;4.330;2022-07-18T16:17:15;36.40;33.40
23120;DHT22;11729;50.836;4.330;2022-07-18T16:19:40;36.30;33.20
23120;DHT22;11729;50.836;4.330;2022-07-18T16:22:06;36.30;33.00
23120;DHT22;11729;50.836;4.330;2022-07-18T16:24:32;36.20;33.20
23120;DHT22;11729;50.836;4.330;2022-07-18T16:26:58;36.30;33.10
23120;DHT22;11729;50.836;4.330;2022-07-18T16:29:23;36.20;32.40
23120;DHT22;11729;50.836;4.330;2022-07-18T16:31:49;36.30;32.40
23120;DHT22;11729;50.836;4.330;2022-07-18T16:34:15;36.20;32.50
23120;DHT22;11729;50.836;4.330;2022-07-18T16:36:40;36.10;33.00
23120;DHT22;11729;50.836;4.330;2022-07-18T16:39:06;35.90;33.50
23120;DHT22;11729;50.836;4.330;2022-07-18T16:41:33;35.80;33.50